Time;durP1;ratioP1;P1;durP2;ratioP2;P2;SDS_P1;SDS_P2;PMS_P1;PMS_P2;Temp;Humidity;BMP_temperature;BMP_pressure;BME280_temperature;BME280_humidity;BME280_pressure;Samples;Min_cycle;Max_cycle;Signal;HPM_P1;HPM_P2
2023/08/27 00:01:11;;;;;;;26.92;16.38;;;20.80;99.90;;;;;;5075924;28;20021;-71
2023/08/27 00:03:37;;;;;;;31.63;18.00;;;20.70;99.90;;;;;;5076002;28;20074;-71
2023/08/27 00:06:03;;;;;;;27.52;16.50;;;20.70;99.90;;;;;;5075673;28;20425;-71
2023/08/27 00:08:29;;;;;;;25.27;16.98;;;20.70;99.90;;;;;;5075937;28;20032;-71
2023/08/27 00:10:59;;;;;;;30.35;17.00;;;20.70;99.90;;;;;;5075759;28;20043;-71
2023/08/27 00:13:25;;;;;;;29.73;17.05;;;20.70;99.90;;;;;;5075636;28;20119;-71
2023/08/27 00:15:51;;;;;;;27.48;16.85;;;20.70;99.90;;;;;;5074673;28;20067;-71
2023/08/27 00:18:16;;;;;;;29.38;16.33;;;20.70;99.90;;;;;;5075588;28;20035;-71
2023/08/27 00:20:46;;;;;;;23.85;16.02;;;20.70;99.90;;;;;;5075718;28;20021;-71
2023/08/27 00:23:12;;;;;;;26.13;16.33;;;20.70;99.90;;;;;;5075569;28;20029;-71
2023/08/27 00:25:38;;;;;;;31.33;16.42;;;20.70;99.90;;;;;;5075490;28;20387;-71
2023/08/27 00:28:04;;;;;;;22.65;16.45;;;20.70;99.90;;;;;;5075436;28;20024;-71
2023/08/27 00:30:30;;;;;;;26.67;17.08;;;20.70;99.90;;;;;;5075462;28;20115;-71
2023/08/27 00:32:56;;;;;;;31.33;16.38;;;20.70;99.90;;;;;;5075378;28;20024;-71
2023/08/27 00:35:22;;;;;;;21.50;15.95;;;20.70;99.90;;;;;;5073904;28;20067;-71
2023/08/27 00:37:48;;;;;;;24.63;15.80;;;20.70;99.90;;;;;;5073902;28;20122;-71
2023/08/27 00:40:14;;;;;;;25.50;16.10;;;20.60;99.90;;;;;;5073948;28;20394;-71
2023/08/27 00:42:40;;;;;;;26.00;16.08;;;20.60;99.90;;;;;;5074007;28;20029;-71
2023/08/27 00:45:06;;;;;;;25.58;15.57;;;20.60;99.90;;;;;;5073997;28;20569;-71
2023/08/27 00:47:36;;;;;;;22.48;15.38;;;20.60;99.90;;;;;;5075093;28;20036;-71
2023/08/27 00:50:03;;;;;;;21.75;15.43;;;20.60;99.90;;;;;;5073810;28;20089;-71
2023/08/27 00:52:29;;;;;;;21.45;15.32;;;20.60;99.90;;;;;;5073700;28;20044;-71
2023/08/27 00:55:03;;;;;;;24.70;15.80;;;20.60;99.90;;;;;;5073566;28;20025;-71
2023/08/27 00:57:30;;;;;;;22.83;16.05;;;20.70;99.90;;;;;;5073590;28;20444;-71
2023/08/27 00:59:57;;;;;;;30.33;16.15;;;20.60;99.90;;;;;;5073662;28;20035;-71
2023/08/27 01:02:23;;;;;;;33.92;24.45;;;20.60;99.90;;;;;;5073591;28;20050;-71
2023/08/27 01:04:50;;;;;;;32.00;21.75;;;20.50;99.90;;;;;;5073502;28;20040;-71
2023/08/27 01:07:57;;;;;;;36.53;20.92;;;20.40;99.90;;;;;;5073579;28;20443;-71
2023/08/27 01:11:02;;;;;;;26.80;18.17;;;20.40;99.90;;;;;;5073570;28;20028;-71
2023/08/27 01:14:09;;;;;;;29.30;18.92;;;20.40;99.90;;;;;;5070971;28;20131;-71
2023/08/27 01:16:36;;;;;;;29.38;19.23;;;20.40;99.90;;;;;;5067967;28;20105;-71
2023/08/27 01:19:12;;;;;;;27.45;17.48;;;20.30;99.90;;;;;;5074709;28;20054;-71
2023/08/27 01:21:39;;;;;;;26.33;16.35;;;20.30;99.90;;;;;;5073224;28;20028;-71
2023/08/27 01:24:06;;;;;;;26.00;16.83;;;20.30;99.90;;;;;;5074746;28;20020;-71
2023/08/27 01:26:57;;;;;;;21.80;16.13;;;20.40;99.90;;;;;;5072904;28;20505;-71
2023/08/27 01:29:42;;;;;;;25.65;16.65;;;20.40;99.90;;;;;;5073242;28;20497;-71
2023/08/27 01:32:34;;;;;;;22.67;16.27;;;20.40;99.90;;;;;;5074739;28;20359;-71
2023/08/27 01:35:03;;;;;;;21.13;16.02;;;20.30;99.90;;;;;;5074247;28;20121;-71
2023/08/27 01:37:31;;;;;;;21.85;16.48;;;20.40;99.90;;;;;;5073252;28;20057;-71
2023/08/27 01:39:59;;;;;;;27.38;16.42;;;20.30;99.90;;;;;;5074468;28;20024;-71
2023/08/27 01:42:25;;;;;;;23.15;14.52;;;20.30;99.90;;;;;;5074434;28;20447;-71
2023/08/27 01:44:50;;;;;;;27.23;15.63;;;20.40;99.90;;;;;;5073160;28;20037;-71
2023/08/27 01:47:16;;;;;;;31.27;16.33;;;20.40;99.90;;;;;;5074494;28;20036;-71
2023/08/27 01:49:42;;;;;;;27.80;15.60;;;20.40;99.90;;;;;;5074301;28;20024;-71
2023/08/27 01:52:08;;;;;;;26.35;17.05;;;20.30;99.90;;;;;;5073282;28;20033;-71
2023/08/27 01:54:34;;;;;;;26.45;16.23;;;20.30;99.90;;;;;;5074270;28;20097;-71
2023/08/27 01:57:00;;;;;;;21.00;16.17;;;20.20;99.90;;;;;;5074279;28;20571;-71
2023/08/27 01:59:26;;;;;;;24.55;15.88;;;20.30;99.90;;;;;;5072973;28;20043;-71
2023/08/27 02:01:52;;;;;;;24.33;15.27;;;20.30;99.90;;;;;;5072934;28;20044;-71
2023/08/27 02:04:18;;;;;;;25.88;15.30;;;20.30;99.90;;;;;;5074241;28;20112;-71
2023/08/27 02:06:44;;;;;;;27.58;15.40;;;20.30;99.90;;;;;;5072895;28;20056;-71
2023/08/27 02:09:11;;;;;;;22.13;15.68;;;20.30;99.90;;;;;;5072969;28;20085;-71
2023/08/27 02:11:38;;;;;;;26.10;15.85;;;20.20;99.90;;;;;;5072909;28;20020;-71
2023/08/27 02:14:04;;;;;;;23.63;15.93;;;20.20;99.90;;;;;;5072832;28;20123;-71
2023/08/27 02:16:30;;;;;;;23.35;15.90;;;20.20;99.90;;;;;;5072635;28;20036;-71
2023/08/27 02:18:56;;;;;;;24.35;16.00;;;20.20;99.90;;;;;;5072778;28;20028;-71
2023/08/27 02:21:22;;;;;;;24.98;16.40;;;20.20;99.90;;;;;;5072799;28;20120;-71
2023/08/27 02:23:47;;;;;;;23.17;15.95;;;20.20;99.90;;;;;;5073966;28;20020;-71
2023/08/27 02:26:13;;;;;;;27.35;15.70;;;20.20;99.90;;;;;;5073872;28;20470;-71
2023/08/27 02:28:39;;;;;;;24.25;15.88;;;20.20;99.90;;;;;;5073971;28;20490;-71
2023/08/27 02:31:06;;;;;;;22.35;15.30;;;20.10;99.90;;;;;;5073911;28;20040;-71
2023/08/27 02:33:32;;;;;;;20.17;15.43;;;20.20;99.90;;;;;;5072533;28;20612;-71
2023/08/27 02:35:58;;;;;;;25.55;15.50;;;20.20;99.90;;;;;;5072336;28;20052;-71
2023/08/27 02:38:24;;;;;;;23.83;15.20;;;20.20;99.90;;;;;;5075217;28;20020;-71
2023/08/27 02:40:50;;;;;;;23.23;14.88;;;20.20;99.90;;;;;;5076143;28;20032;-71
2023/08/27 02:43:18;;;;;;;19.35;15.30;;;20.10;99.90;;;;;;5076335;28;20025;-71
2023/08/27 02:45:45;;;;;;;25.73;15.52;;;20.10;99.90;;;;;;5076210;28;20033;-71
2023/08/27 02:48:12;;;;;;;22.52;15.00;;;20.10;99.90;;;;;;5076122;28;20082;-71
2023/08/27 02:50:38;;;;;;;23.92;15.95;;;20.10;99.90;;;;;;5077575;28;20029;-71
2023/08/27 02:53:04;;;;;;;26.48;15.95;;;20.10;99.90;;;;;;5076322;28;20024;-71
2023/08/27 02:55:31;;;;;;;19.25;14.57;;;20.10;99.90;;;;;;5075836;28;20040;-71
2023/08/27 02:57:58;;;;;;;21.50;14.40;;;20.10;99.90;;;;;;5075983;28;20039;-71
2023/08/27 03:00:25;;;;;;;24.05;14.73;;;20.10;99.90;;;;;;5075937;28;20440;-71
2023/08/27 03:02:51;;;;;;;20.85;14.77;;;20.00;99.90;;;;;;5075815;28;20021;-71
2023/08/27 03:05:17;;;;;;;19.17;14.88;;;20.00;99.90;;;;;;5075822;28;20032;-71
2023/08/27 03:07:44;;;;;;;21.60;15.35;;;20.00;99.90;;;;;;5075688;28;20044;-71
2023/08/27 03:10:10;;;;;;;24.33;14.95;;;20.00;99.90;;;;;;5075727;28;20458;-71
2023/08/27 03:12:35;;;;;;;22.55;14.13;;;20.00;99.90;;;;;;5075763;28;20384;-71
2023/08/27 03:15:02;;;;;;;20.92;14.55;;;19.90;99.90;;;;;;5075455;28;20123;-71
2023/08/27 03:17:28;;;;;;;18.75;14.90;;;19.90;99.90;;;;;;5075542;28;20032;-71
2023/08/27 03:19:54;;;;;;;22.23;14.65;;;19.90;99.90;;;;;;5075622;28;20112;-71
2023/08/27 03:22:20;;;;;;;25.23;15.73;;;19.90;99.90;;;;;;5075560;28;20044;-71
2023/08/27 03:24:46;;;;;;;23.05;15.60;;;19.90;99.90;;;;;;5075527;28;20024;-71
2023/08/27 03:27:12;;;;;;;22.80;15.98;;;19.90;99.90;;;;;;5075407;28;20377;-71
2023/08/27 03:29:39;;;;;;;19.27;14.73;;;19.80;99.90;;;;;;5075344;28;20032;-71
2023/08/27 03:32:06;;;;;;;20.17;15.55;;;19.70;99.90;;;;;;5075337;28;20032;-71
2023/08/27 03:34:32;;;;;;;21.27;14.90;;;19.80;99.90;;;;;;5076478;28;20040;-71
2023/08/27 03:36:59;;;;;;;22.00;14.38;;;19.70;99.90;;;;;;5075135;28;20495;-71
2023/08/27 03:39:25;;;;;;;20.55;15.07;;;19.80;99.90;;;;;;5075160;28;20166;-71
2023/08/27 03:41:51;;;;;;;24.92;14.88;;;19.80;99.90;;;;;;5075056;28;20056;-71
2023/08/27 03:44:17;;;;;;;22.75;14.60;;;19.70;99.90;;;;;;5075108;28;20147;-71
2023/08/27 03:46:43;;;;;;;20.27;14.90;;;19.70;99.90;;;;;;5075075;28;20090;-71
2023/08/27 03:49:10;;;;;;;21.17;14.57;;;19.70;99.90;;;;;;5058168;28;20043;-71
2023/08/27 03:51:36;;;;;;;29.02;16.27;;;19.70;99.90;;;;;;5074877;28;20035;-71
2023/08/27 03:54:02;;;;;;;26.02;15.60;;;19.70;99.90;;;;;;5075027;28;20037;-71
2023/08/27 03:56:28;;;;;;;22.02;15.40;;;19.70;99.90;;;;;;5074830;28;20121;-71
2023/08/27 03:58:54;;;;;;;27.63;16.02;;;19.70;99.90;;;;;;5074873;28;20200;-71
2023/08/27 04:01:20;;;;;;;23.77;15.57;;;19.60;99.90;;;;;;5074522;28;20371;-71
2023/08/27 04:03:46;;;;;;;23.63;15.88;;;19.50;99.90;;;;;;5074664;28;20029;-71
2023/08/27 04:06:12;;;;;;;24.63;16.13;;;19.50;99.90;;;;;;5074572;28;20024;-71
2023/08/27 04:08:38;;;;;;;21.20;15.35;;;19.50;99.90;;;;;;5074683;28;20048;-71
2023/08/27 04:11:04;;;;;;;27.30;16.05;;;19.40;99.90;;;;;;5074602;28;20551;-71
2023/08/27 04:13:31;;;;;;;24.65;16.25;;;19.40;99.90;;;;;;5074163;28;20024;-71
2023/08/27 04:16:02;;;;;;;24.55;16.67;;;19.40;99.90;;;;;;5075639;28;20024;-68
2023/08/27 04:18:29;;;;;;;24.25;16.02;;;19.40;99.90;;;;;;5074331;28;20028;-69
2023/08/27 04:20:56;;;;;;;23.58;15.68;;;19.40;99.90;;;;;;5074426;28;20086;-69
2023/08/27 04:23:22;;;;;;;22.02;15.32;;;19.30;99.90;;;;;;5075727;28;20028;-68
2023/08/27 04:25:48;;;;;;;25.02;16.00;;;19.30;99.90;;;;;;5074135;28;20029;-68
2023/08/27 04:28:15;;;;;;;24.45;16.48;;;19.30;99.90;;;;;;5074160;28;20033;-68
2023/08/27 04:30:42;;;;;;;24.20;14.90;;;19.40;99.90;;;;;;5075286;28;20378;-68
2023/08/27 04:33:10;;;;;;;21.08;16.05;;;19.40;99.90;;;;;;5075357;28;20032;-68
2023/08/27 04:35:38;;;;;;;25.65;15.38;;;19.40;99.90;;;;;;5075275;28;20052;-68
2023/08/27 04:38:05;;;;;;;23.60;15.43;;;19.40;99.90;;;;;;5073931;28;20028;-70
2023/08/27 04:40:30;;;;;;;23.35;16.15;;;19.40;99.90;;;;;;5073978;28;20493;-70
2023/08/27 04:43:00;;;;;;;23.55;15.45;;;19.50;99.90;;;;;;5073942;28;20029;-69
2023/08/27 04:45:26;;;;;;;26.60;16.50;;;19.50;99.90;;;;;;5073891;28;20053;-69
2023/08/27 04:47:52;;;;;;;25.38;15.90;;;19.60;99.90;;;;;;5073934;28;20377;-69
2023/08/27 04:50:17;;;;;;;20.25;14.48;;;19.60;99.90;;;;;;5075066;28;20024;-69
2023/08/27 04:52:43;;;;;;;23.73;16.33;;;19.70;99.90;;;;;;5073633;28;20757;-69
2023/08/27 04:55:09;;;;;;;25.80;16.23;;;19.70;99.90;;;;;;5073679;28;20127;-69
2023/08/27 04:57:37;;;;;;;21.98;15.45;;;19.90;99.90;;;;;;5073801;28;20036;-69
2023/08/27 05:00:07;;;;;;;26.55;16.88;;;19.90;99.90;;;;;;5074811;28;20025;-69
2023/08/27 05:02:34;;;;;;;28.73;16.35;;;20.00;99.90;;;;;;5073113;28;20031;-70
2023/08/27 05:05:02;;;;;;;24.08;16.55;;;20.10;99.90;;;;;;5075160;28;20029;-69
2023/08/27 05:07:29;;;;;;;27.23;16.73;;;20.20;99.90;;;;;;5073467;28;20490;-69
2023/08/27 05:09:55;;;;;;;29.98;17.08;;;20.30;99.90;;;;;;5073423;28;20048;-69
2023/08/27 05:12:22;;;;;;;27.75;16.88;;;20.40;99.90;;;;;;5073512;28;20037;-70
2023/08/27 05:14:48;;;;;;;26.02;15.77;;;20.60;99.90;;;;;;5073233;28;20070;-69
2023/08/27 05:17:15;;;;;;;27.60;16.00;;;20.70;99.90;;;;;;5073394;28;20170;-70
2023/08/27 05:19:41;;;;;;;19.95;16.58;;;20.80;99.90;;;;;;5073395;28;20032;-70
2023/08/27 05:22:07;;;;;;;30.65;16.73;;;20.90;99.90;;;;;;5073319;28;20025;-70
2023/08/27 05:24:34;;;;;;;26.92;15.38;;;21.00;99.90;;;;;;5073342;28;20386;-69
2023/08/27 05:27:00;;;;;;;24.70;15.35;;;21.00;99.90;;;;;;5073197;28;20056;-70
2023/08/27 05:29:26;;;;;;;24.88;15.23;;;21.10;99.90;;;;;;5073125;28;20490;-70
2023/08/27 05:31:53;;;;;;;23.42;15.63;;;21.20;99.90;;;;;;5073289;28;20070;-70
2023/08/27 05:34:19;;;;;;;30.83;17.50;;;21.20;99.90;;;;;;5074310;28;20036;-70
2023/08/27 05:36:45;;;;;;;31.52;15.73;;;21.40;99.90;;;;;;5073057;28;20079;-70
2023/08/27 05:39:13;;;;;;;28.27;17.45;;;21.40;99.90;;;;;;5056411;28;20029;-70
2023/08/27 05:41:40;;;;;;;26.17;15.15;;;21.60;99.90;;;;;;5074399;28;20521;-70
2023/08/27 05:44:08;;;;;;;30.05;16.10;;;21.60;99.90;;;;;;5056817;28;20024;-70
2023/08/27 05:46:34;;;;;;;28.52;15.50;;;21.50;99.90;;;;;;5073167;28;20058;-70
2023/08/27 05:49:01;;;;;;;27.60;16.08;;;21.70;99.90;;;;;;5073001;28;20469;-70
2023/08/27 05:51:27;;;;;;;27.92;15.35;;;22.00;99.90;;;;;;5072943;28;20036;-70
2023/08/27 05:53:53;;;;;;;24.52;15.73;;;22.20;99.90;;;;;;5073034;28;20029;-70
2023/08/27 05:56:19;;;;;;;26.13;16.02;;;22.40;99.90;;;;;;5072936;28;20028;-70
2023/08/27 05:58:45;;;;;;;30.65;14.70;;;22.60;99.90;;;;;;5074184;28;20028;-70
2023/08/27 06:01:11;;;;;;;28.92;16.23;;;22.80;99.90;;;;;;5072927;28;20073;-70
2023/08/27 06:03:36;;;;;;;30.73;15.63;;;22.90;99.90;;;;;;5072831;28;20024;-70
2023/08/27 06:06:03;;;;;;;24.17;15.20;;;23.10;99.90;;;;;;5074228;28;20091;-70
2023/08/27 06:08:29;;;;;;;29.98;15.25;;;23.20;99.90;;;;;;5072896;28;20224;-70
2023/08/27 06:10:55;;;;;;;23.25;14.82;;;23.40;99.90;;;;;;5072927;28;20661;-70
2023/08/27 06:13:21;;;;;;;21.95;13.45;;;23.50;99.90;;;;;;5076986;28;20028;-69
2023/08/27 06:15:47;;;;;;;28.17;15.43;;;23.70;99.90;;;;;;5076672;28;20082;-70
2023/08/27 06:18:13;;;;;;;22.65;14.57;;;23.90;99.90;;;;;;5076549;28;20048;-70
2023/08/27 06:20:42;;;;;;;25.90;15.48;;;24.00;99.90;;;;;;5078014;28;20024;-70
2023/08/27 06:23:08;;;;;;;25.37;14.60;;;24.20;99.90;;;;;;5076664;28;20062;-70
2023/08/27 06:25:35;;;;;;;23.95;14.38;;;24.30;99.90;;;;;;5076504;28;20265;-70
2023/08/27 06:28:03;;;;;;;26.38;12.90;;;24.50;99.90;;;;;;5077904;28;20039;-70
2023/08/27 06:30:30;;;;;;;26.20;14.60;;;24.80;99.90;;;;;;5076406;28;20123;-70
2023/08/27 06:32:59;;;;;;;24.83;14.73;;;25.00;99.90;;;;;;5076299;28;20124;-70
2023/08/27 06:35:25;;;;;;;22.40;14.32;;;25.10;99.90;;;;;;5076225;28;20044;-70
2023/08/27 06:37:51;;;;;;;25.23;14.23;;;25.30;99.90;;;;;;5076329;28;20028;-70
2023/08/27 06:40:17;;;;;;;26.15;13.93;;;25.50;99.90;;;;;;5077763;28;20047;-70
2023/08/27 06:42:43;;;;;;;24.02;12.85;;;25.90;99.90;;;;;;5076153;28;20032;-70
2023/08/27 06:45:15;;;;;;;25.20;13.60;;;26.20;98.60;;;;;;5076115;28;20099;-70
2023/08/27 06:47:41;;;;;;;22.42;13.18;;;26.00;97.60;;;;;;5077542;28;20483;-71
2023/08/27 06:50:07;;;;;;;23.15;12.00;;;26.20;97.70;;;;;;5076101;28;20039;-70
2023/08/27 06:52:33;;;;;;;25.08;11.88;;;26.50;97.30;;;;;;5076049;28;20185;-70
2023/08/27 06:55:00;;;;;;;22.88;13.65;;;27.00;96.20;;;;;;5075939;28;20102;-71
2023/08/27 06:57:26;;;;;;;26.02;12.60;;;27.10;95.10;;;;;;5075877;28;20032;-71
2023/08/27 06:59:53;;;;;;;21.05;12.00;;;27.50;94.50;;;;;;5075937;28;20055;-71
2023/08/27 07:02:19;;;;;;;24.55;11.80;;;27.70;93.30;;;;;;5077195;28;20032;-71
2023/08/27 07:04:47;;;;;;;27.17;12.68;;;27.90;91.90;;;;;;5075799;28;20032;-71
2023/08/27 07:07:13;;;;;;;18.90;11.05;;;28.30;91.80;;;;;;5075864;28;20024;-71
2023/08/27 07:09:39;;;;;;;20.85;11.85;;;28.60;89.80;;;;;;5075726;28;20035;-71
2023/08/27 07:12:05;;;;;;;28.65;11.75;;;28.70;88.00;;;;;;5075752;28;20020;-71
2023/08/27 07:14:31;;;;;;;22.83;11.70;;;29.10;86.20;;;;;;5075487;28;20086;-71
2023/08/27 07:16:57;;;;;;;20.63;10.57;;;29.40;84.70;;;;;;5076784;28;20029;-71
2023/08/27 07:19:23;;;;;;;22.20;11.27;;;29.80;84.10;;;;;;5075684;28;20108;-71
2023/08/27 07:21:49;;;;;;;20.30;11.38;;;30.00;79.90;;;;;;5075480;28;20025;-71
2023/08/27 07:24:16;;;;;;;26.75;12.00;;;30.30;76.30;;;;;;5074942;28;20182;-71
2023/08/27 07:26:43;;;;;;;20.80;11.60;;;30.60;74.80;;;;;;5075371;28;20028;-71
2023/08/27 07:29:09;;;;;;;27.02;12.45;;;30.90;72.90;;;;;;5075322;28;20497;-71
2023/08/27 07:31:35;;;;;;;23.88;10.43;;;31.10;71.90;;;;;;5075428;28;20059;-71
2023/08/27 07:34:02;;;;;;;19.98;11.30;;;31.40;70.10;;;;;;5076422;28;20053;-71
2023/08/27 07:36:28;;;;;;;18.55;10.43;;;31.50;66.50;;;;;;5075049;28;20036;-71
2023/08/27 07:38:54;;;;;;;23.42;11.07;;;31.70;65.30;;;;;;5075265;28;20029;-71
2023/08/27 07:41:21;;;;;;;22.48;9.85;;;32.10;61.00;;;;;;5075134;28;20390;-72
2023/08/27 07:43:48;;;;;;;20.35;10.57;;;32.50;60.80;;;;;;5075081;28;20039;-71
2023/08/27 07:46:15;;;;;;;19.85;9.90;;;32.70;58.40;;;;;;5075006;28;20040;-72
2023/08/27 07:48:41;;;;;;;16.58;10.32;;;32.80;60.00;;;;;;5075047;28;20028;-72
2023/08/27 07:51:07;;;;;;;18.77;10.50;;;33.00;57.10;;;;;;5075005;28;20123;-72
2023/08/27 07:53:34;;;;;;;18.23;10.50;;;33.10;57.70;;;;;;5074881;28;20028;-72
2023/08/27 07:56:00;;;;;;;26.15;9.75;;;32.80;56.50;;;;;;5076132;28;20496;-72
2023/08/27 07:58:26;;;;;;;21.83;10.68;;;33.30;59.00;;;;;;5074869;28;20036;-72
2023/08/27 08:00:59;;;;;;;19.85;10.52;;;33.60;55.60;;;;;;5074787;28;20553;-72
2023/08/27 08:03:26;;;;;;;22.05;11.27;;;33.50;56.80;;;;;;5076004;28;20047;-73
2023/08/27 08:05:52;;;;;;;22.58;10.45;;;32.90;58.20;;;;;;5075856;28;20143;-72
2023/08/27 08:08:18;;;;;;;24.02;10.32;;;32.50;58.40;;;;;;5075850;28;20051;-72
2023/08/27 08:10:44;;;;;;;20.73;9.48;;;32.30;58.00;;;;;;5074476;28;20033;-72
2023/08/27 08:13:11;;;;;;;19.52;10.57;;;32.80;58.00;;;;;;5075737;28;20060;-72
2023/08/27 08:15:37;;;;;;;20.65;9.18;;;33.40;56.80;;;;;;5075692;28;20066;-73
2023/08/27 08:18:03;;;;;;;17.08;9.85;;;33.50;55.10;;;;;;5075738;28;20028;-73
2023/08/27 08:20:29;;;;;;;22.27;10.15;;;34.00;55.00;;;;;;5075734;28;20060;-72
2023/08/27 08:22:55;;;;;;;18.25;9.93;;;34.40;53.80;;;;;;5075660;28;20028;-72
2023/08/27 08:25:22;;;;;;;20.63;9.48;;;34.80;53.60;;;;;;5075511;28;20089;-72
2023/08/27 08:27:48;;;;;;;20.13;9.18;;;34.70;52.60;;;;;;5075592;28;20467;-73
2023/08/27 08:30:14;;;;;;;24.85;10.23;;;35.10;51.20;;;;;;5075511;28;20047;-72
2023/08/27 08:32:40;;;;;;;22.02;10.80;;;35.50;49.80;;;;;;5075436;28;20114;-72
2023/08/27 08:35:06;;;;;;;20.02;9.98;;;36.00;50.00;;;;;;5074917;28;20049;-72
2023/08/27 08:37:32;;;;;;;19.77;9.88;;;36.30;49.60;;;;;;5074666;28;20055;-73
2023/08/27 08:39:58;;;;;;;20.23;9.80;;;36.70;46.80;;;;;;5075220;28;20028;-72
2023/08/27 08:42:38;;;;;;;23.70;9.95;;;37.00;48.00;;;;;;5075372;28;20025;-73
2023/08/27 08:45:10;;;;;;;21.40;10.05;;;36.90;46.40;;;;;;5073998;28;20187;-73
2023/08/27 08:47:36;;;;;;;20.05;9.23;;;36.30;43.80;;;;;;5075412;28;20056;-73
2023/08/27 08:50:06;;;;;;;15.85;9.45;;;36.10;44.30;;;;;;5075067;28;20024;-73
2023/08/27 08:52:42;;;;;;;20.33;10.60;;;36.40;43.80;;;;;;5074999;28;20024;-72
2023/08/27 08:55:10;;;;;;;19.63;9.45;;;36.90;44.80;;;;;;5074993;28;20389;-73
2023/08/27 08:58:00;;;;;;;18.52;9.73;;;37.30;42.60;;;;;;5075098;28;20108;-73
2023/08/27 09:00:27;;;;;;;26.25;10.45;;;37.50;39.60;;;;;;5073766;28;20110;-73
2023/08/27 09:02:54;;;;;;;22.00;9.55;;;37.80;40.80;;;;;;5074902;28;20024;-73
2023/08/27 09:05:21;;;;;;;20.15;9.57;;;38.00;40.00;;;;;;5074898;28;20474;-73
2023/08/27 09:07:48;;;;;;;22.25;10.07;;;37.90;38.70;;;;;;5074785;28;20107;-73
2023/08/27 09:10:15;;;;;;;19.77;10.40;;;37.60;39.60;;;;;;5074744;28;20397;-73
2023/08/27 09:12:41;;;;;;;21.45;10.85;;;38.20;39.80;;;;;;5074617;28;20093;-73
2023/08/27 09:15:09;;;;;;;23.13;10.27;;;38.30;38.20;;;;;;5074727;28;20025;-73
2023/08/27 09:17:38;;;;;;;19.55;10.20;;;37.20;39.20;;;;;;5074827;28;20103;-73
2023/08/27 09:20:06;;;;;;;16.58;9.55;;;37.50;37.40;;;;;;5074681;28;20025;-73
2023/08/27 09:22:35;;;;;;;14.60;9.25;;;37.40;36.50;;;;;;5074657;28;20051;-74
2023/08/27 09:25:05;;;;;;;18.50;9.50;;;38.10;36.30;;;;;;5074410;28;20036;-73
2023/08/27 09:27:32;;;;;;;20.30;10.02;;;38.40;35.40;;;;;;5074513;28;20059;-73
2023/08/27 09:30:00;;;;;;;15.88;9.15;;;38.50;36.60;;;;;;5074447;28;20626;-73
2023/08/27 09:32:27;;;;;;;22.52;9.75;;;38.70;35.00;;;;;;5074556;28;20036;-74
2023/08/27 09:35:01;;;;;;;18.13;9.93;;;39.20;35.00;;;;;;5074367;28;20132;-73
2023/08/27 09:37:28;;;;;;;22.20;9.98;;;38.20;34.70;;;;;;5074266;28;20021;-73
2023/08/27 09:39:55;;;;;;;18.80;9.75;;;38.60;35.60;;;;;;5074551;28;20442;-73
2023/08/27 09:42:22;;;;;;;19.42;10.65;;;39.00;35.00;;;;;;5074434;28;20024;-73
2023/08/27 09:44:52;;;;;;;20.27;12.15;;;39.40;34.80;;;;;;5074269;28;20033;-73
2023/08/27 09:47:31;;;;;;;25.02;10.43;;;39.60;33.10;;;;;;5074073;28;20029;-73
2023/08/27 09:49:58;;;;;;;19.25;10.70;;;39.70;34.60;;;;;;5074323;28;20025;-72
2023/08/27 09:52:25;;;;;;;18.15;9.60;;;40.10;31.20;;;;;;5074412;28;20025;-73
2023/08/27 09:54:52;;;;;;;18.02;10.55;;;40.00;31.50;;;;;;5074266;28;20039;-73
2023/08/27 09:57:19;;;;;;;18.67;10.30;;;40.40;31.20;;;;;;5074513;28;20036;-73
2023/08/27 09:59:46;;;;;;;18.15;10.00;;;40.60;29.90;;;;;;5074311;28;20024;-73
2023/08/27 10:02:16;;;;;;;16.42;9.20;;;40.60;28.30;;;;;;5074173;28;20096;-73
2023/08/27 10:04:59;;;;;;;15.70;9.52;;;40.60;28.20;;;;;;5074407;28;20032;-73
2023/08/27 10:07:24;;;;;;;20.80;9.90;;;40.80;29.60;;;;;;5074075;28;20020;-73
2023/08/27 10:09:52;;;;;;;18.83;10.13;;;41.00;27.50;;;;;;5074249;28;20497;-73
2023/08/27 10:12:19;;;;;;;17.58;9.77;;;41.30;27.60;;;;;;5074076;28;20035;-73
2023/08/27 10:14:46;;;;;;;15.40;10.38;;;41.40;26.40;;;;;;5074048;28;20021;-74
2023/08/27 10:17:13;;;;;;;18.92;10.18;;;41.40;28.10;;;;;;5074017;28;20040;-74
2023/08/27 10:19:39;;;;;;;18.90;10.02;;;41.60;27.80;;;;;;5074096;28;20029;-74
2023/08/27 10:22:05;;;;;;;21.63;10.52;;;40.70;26.40;;;;;;5074107;28;20112;-74
2023/08/27 10:24:35;;;;;;;17.73;9.43;;;41.30;27.00;;;;;;5074003;28;20056;-74
2023/08/27 10:27:03;;;;;;;19.50;10.00;;;41.40;26.50;;;;;;5074015;28;20024;-74
2023/08/27 10:29:30;;;;;;;17.98;10.75;;;41.50;26.10;;;;;;5073893;28;20402;-74
2023/08/27 10:31:57;;;;;;;20.65;10.55;;;41.00;27.70;;;;;;5074080;28;20059;-74
2023/08/27 10:34:24;;;;;;;25.42;11.93;;;41.20;27.20;;;;;;5073791;28;20073;-75
2023/08/27 10:36:51;;;;;;;23.65;10.25;;;41.70;26.60;;;;;;5073908;28;20060;-74
2023/08/27 10:39:26;;;;;;;18.85;9.52;;;41.30;26.20;;;;;;5073827;28;20101;-74
2023/08/27 10:41:52;;;;;;;17.17;10.02;;;41.20;25.10;;;;;;5073839;28;20050;-75
2023/08/27 10:44:20;;;;;;;27.88;12.07;;;41.30;25.20;;;;;;5073876;28;20021;-74
2023/08/27 10:47:12;;;;;;;19.40;9.32;;;40.70;25.80;;;;;;5074083;28;20032;-74
2023/08/27 10:49:40;;;;;;;19.95;10.38;;;40.00;26.10;;;;;;5073711;28;20378;-74
2023/08/27 10:52:22;;;;;;;16.17;10.15;;;40.70;26.40;;;;;;5073800;28;20492;-74
2023/08/27 10:55:01;;;;;;;20.85;10.15;;;41.50;26.00;;;;;;5073625;28;20040;-74
2023/08/27 10:57:27;;;;;;;23.03;10.37;;;41.60;25.90;;;;;;5073702;28;20035;-74
2023/08/27 11:00:10;;;;;;;17.45;9.43;;;42.30;25.50;;;;;;5075820;28;20024;-74
2023/08/27 11:02:57;;;;;;;16.73;9.35;;;40.50;25.30;;;;;;5077275;28;20075;-74
2023/08/27 11:05:28;;;;;;;15.25;10.25;;;40.50;25.60;;;;;;5077261;28;20068;-74
2023/08/27 11:07:58;;;;;;;17.67;9.88;;;40.60;26.20;;;;;;5077194;28;20086;-75
2023/08/27 11:10:32;;;;;;;15.82;8.68;;;41.00;24.20;;;;;;5077135;28;20036;-75
2023/08/27 11:12:58;;;;;;;15.20;8.23;;;41.30;24.60;;;;;;5076866;28;20035;-75
2023/08/27 11:15:31;;;;;;;15.20;7.80;;;40.50;24.30;;;;;;5076966;28;20032;-75
2023/08/27 11:17:59;;;;;;;17.95;8.40;;;40.20;23.70;;;;;;5076878;28;20078;-74
2023/08/27 11:20:27;;;;;;;18.65;8.10;;;40.80;22.70;;;;;;5076790;28;20020;-75
2023/08/27 11:22:59;;;;;;;20.77;7.78;;;40.10;21.30;;;;;;5077049;28;20075;-75
2023/08/27 11:25:27;;;;;;;16.08;7.97;;;39.60;21.80;;;;;;5076763;28;20025;-75
2023/08/27 11:27:55;;;;;;;20.55;8.50;;;40.80;22.30;;;;;;5076726;28;20032;-75
2023/08/27 11:30:25;;;;;;;19.63;7.82;;;41.80;22.80;;;;;;5075639;28;20039;-74
2023/08/27 11:32:53;;;;;;;16.90;7.18;;;42.30;21.60;;;;;;5076562;28;20032;-75
2023/08/27 11:35:23;;;;;;;20.45;6.35;;;42.20;17.10;;;;;;5076325;28;20040;-75
2023/08/27 11:37:50;;;;;;;13.10;6.72;;;41.00;17.30;;;;;;5076714;28;20097;-75
2023/08/27 11:40:16;;;;;;;17.52;7.32;;;40.60;17.20;;;;;;5076630;28;20036;-75
2023/08/27 11:42:56;;;;;;;16.73;5.90;;;40.30;18.50;;;;;;5076594;28;20395;-75
2023/08/27 11:45:40;;;;;;;16.90;7.05;;;41.40;17.80;;;;;;5076452;28;20466;-75
2023/08/27 11:48:08;;;;;;;15.30;5.47;;;42.00;17.30;;;;;;5076527;28;20161;-75
2023/08/27 11:50:38;;;;;;;13.57;5.53;;;41.60;14.00;;;;;;5076288;28;20031;-75
2023/08/27 11:53:05;;;;;;;11.23;5.43;;;40.90;15.50;;;;;;5076415;28;20032;-75
2023/08/27 11:55:31;;;;;;;13.15;5.80;;;41.10;14.80;;;;;;5076180;28;20489;-75
2023/08/27 11:57:58;;;;;;;10.27;6.10;;;40.10;15.60;;;;;;5076129;28;20374;-75
2023/08/27 12:00:25;;;;;;;9.38;6.07;;;40.70;17.50;;;;;;5076218;28;20024;-75
2023/08/27 12:02:51;;;;;;;17.73;7.38;;;40.80;18.20;;;;;;5076011;28;20035;-75
2023/08/27 12:05:17;;;;;;;21.75;8.23;;;40.50;19.00;;;;;;5075883;28;20025;-75
2023/08/27 12:07:43;;;;;;;13.50;6.47;;;40.70;18.70;;;;;;5075903;28;20033;-74
2023/08/27 12:10:10;;;;;;;20.52;6.30;;;41.50;17.70;;;;;;5075871;28;20031;-74
2023/08/27 12:12:40;;;;;;;12.82;5.60;;;41.80;16.50;;;;;;5075797;28;20032;-76
2023/08/27 12:15:06;;;;;;;;;;;40.50;17.20;;;;;;5076171;28;20169;-75
2023/08/27 12:17:35;;;;;;;15.43;6.63;;;40.10;17.10;;;;;;5075811;28;19908;-75
2023/08/27 12:20:05;;;;;;;16.90;6.63;;;40.40;17.60;;;;;;5075742;28;20162;-75
2023/08/27 12:22:40;;;;;;;17.35;7.00;;;41.40;17.40;;;;;;5075627;28;20044;-75
2023/08/27 12:25:06;;;;;;;17.20;6.82;;;41.80;16.80;;;;;;5075602;28;20040;-75
2023/08/27 12:27:33;;;;;;;15.95;7.70;;;42.00;15.70;;;;;;5075651;28;20029;-75
2023/08/27 12:29:59;;;;;;;22.95;6.95;;;41.60;17.60;;;;;;5075440;28;20115;-75
2023/08/27 12:32:32;;;;;;;24.95;8.32;;;41.00;17.10;;;;;;5075551;28;20100;-75
2023/08/27 12:34:58;;;;;;;16.00;5.93;;;40.90;17.10;;;;;;5075339;28;20048;-75